sensor_id;sensor_type;location;lat;lon;timestamp;P1;durP1;ratioP1;P2;durP2;ratioP2
19231;SDS011;9750;48.730;10.294;2023-03-05T00:00:16;26.83;;;18.40;;
19231;SDS011;9750;48.730;10.294;2023-03-05T00:02:44;34.87;;;20.03;;
19231;SDS011;9750;48.730;10.294;2023-03-05T00:05:11;30.77;;;18.60;;
19231;SDS011;9750;48.730;10.294;2023-03-05T00:07:39;35.07;;;20.77;;
19231;SDS011;9750;48.730;10.294;2023-03-05T00:10:06;35.53;;;20.73;;
19231;SDS011;9750;48.730;10.294;2023-03-05T00:12:36;26.80;;;17.97;;
19231;SDS011;9750;48.730;10.294;2023-03-05T00:15:03;34.73;;;19.93;;
19231;SDS011;9750;48.730;10.294;2023-03-05T00:17:31;31.43;;;19.87;;
19231;SDS011;9750;48.730;10.294;2023-03-05T00:19:58;35.70;;;20.23;;
19231;SDS011;9750;48.730;10.294;2023-03-05T00:22:25;26.30;;;17.43;;
19231;SDS011;9750;48.730;10.294;2023-03-05T00:24:53;28.67;;;18.77;;
19231;SDS011;9750;48.730;10.294;2023-03-05T00:27:20;28.63;;;17.70;;
19231;SDS011;9750;48.730;10.294;2023-03-05T00:29:49;31.77;;;19.63;;
19231;SDS011;9750;48.730;10.294;2023-03-05T00:32:16;29.47;;;18.13;;
19231;SDS011;9750;48.730;10.294;2023-03-05T00:34:43;30.30;;;19.13;;
19231;SDS011;9750;48.730;10.294;2023-03-05T00:37:10;27.33;;;17.27;;
19231;SDS011;9750;48.730;10.294;2023-03-05T00:39:37;29.93;;;18.53;;
19231;SDS011;9750;48.730;10.294;2023-03-05T00:42:05;25.23;;;16.47;;
19231;SDS011;9750;48.730;10.294;2023-03-05T00:44:32;35.27;;;19.53;;
19231;SDS011;9750;48.730;10.294;2023-03-05T00:49:34;33.90;;;19.17;;
19231;SDS011;9750;48.730;10.294;2023-03-05T00:52:01;30.90;;;18.67;;
19231;SDS011;9750;48.730;10.294;2023-03-05T00:54:28;29.13;;;18.27;;
19231;SDS011;9750;48.730;10.294;2023-03-05T00:56:56;31.30;;;18.10;;
19231;SDS011;9750;48.730;10.294;2023-03-05T00:59:23;23.53;;;16.77;;
19231;SDS011;9750;48.730;10.294;2023-03-05T01:01:50;28.20;;;18.20;;
19231;SDS011;9750;48.730;10.294;2023-03-05T01:04:19;31.17;;;18.33;;
19231;SDS011;9750;48.730;10.294;2023-03-05T01:09:59;28.60;;;16.77;;
19231;SDS011;9750;48.730;10.294;2023-03-05T01:12:26;34.17;;;19.07;;
19231;SDS011;9750;48.730;10.294;2023-03-05T01:14:54;28.13;;;16.87;;
19231;SDS011;9750;48.730;10.294;2023-03-05T01:17:21;35.37;;;18.30;;
19231;SDS011;9750;48.730;10.294;2023-03-05T01:19:50;31.87;;;17.53;;
19231;SDS011;9750;48.730;10.294;2023-03-05T01:22:17;28.97;;;17.40;;
19231;SDS011;9750;48.730;10.294;2023-03-05T01:24:44;33.77;;;17.73;;
19231;SDS011;9750;48.730;10.294;2023-03-05T01:27:11;27.10;;;16.90;;
19231;SDS011;9750;48.730;10.294;2023-03-05T01:29:38;35.40;;;18.33;;
19231;SDS011;9750;48.730;10.294;2023-03-05T01:32:06;27.73;;;16.33;;
19231;SDS011;9750;48.730;10.294;2023-03-05T01:34:34;27.87;;;17.13;;
19231;SDS011;9750;48.730;10.294;2023-03-05T01:37:03;33.27;;;17.63;;
19231;SDS011;9750;48.730;10.294;2023-03-05T01:39:30;26.27;;;15.63;;
19231;SDS011;9750;48.730;10.294;2023-03-05T01:41:57;32.53;;;17.47;;
19231;SDS011;9750;48.730;10.294;2023-03-05T01:44:25;28.47;;;17.63;;
19231;SDS011;9750;48.730;10.294;2023-03-05T01:46:55;31.10;;;18.10;;
19231;SDS011;9750;48.730;10.294;2023-03-05T01:49:23;27.20;;;16.07;;
19231;SDS011;9750;48.730;10.294;2023-03-05T01:51:53;31.30;;;17.97;;
19231;SDS011;9750;48.730;10.294;2023-03-05T01:54:30;27.93;;;15.80;;
19231;SDS011;9750;48.730;10.294;2023-03-05T01:57:00;36.83;;;19.17;;
19231;SDS011;9750;48.730;10.294;2023-03-05T01:59:32;27.07;;;16.83;;
19231;SDS011;9750;48.730;10.294;2023-03-05T02:02:01;38.03;;;18.73;;
19231;SDS011;9750;48.730;10.294;2023-03-05T02:04:30;31.10;;;18.10;;
19231;SDS011;9750;48.730;10.294;2023-03-05T02:07:01;25.80;;;16.20;;
19231;SDS011;9750;48.730;10.294;2023-03-05T02:09:30;32.50;;;18.27;;
19231;SDS011;9750;48.730;10.294;2023-03-05T02:11:57;36.37;;;17.73;;
19231;SDS011;9750;48.730;10.294;2023-03-05T02:14:25;29.43;;;17.80;;
19231;SDS011;9750;48.730;10.294;2023-03-05T02:16:53;32.73;;;17.63;;
19231;SDS011;9750;48.730;10.294;2023-03-05T02:19:20;31.70;;;17.93;;
19231;SDS011;9750;48.730;10.294;2023-03-05T02:24:54;36.40;;;19.07;;
19231;SDS011;9750;48.730;10.294;2023-03-05T02:27:24;30.77;;;17.97;;
19231;SDS011;9750;48.730;10.294;2023-03-05T02:29:59;27.50;;;17.47;;
19231;SDS011;9750;48.730;10.294;2023-03-05T02:32:27;32.27;;;18.20;;
19231;SDS011;9750;48.730;10.294;2023-03-05T02:34:54;35.10;;;18.90;;
19231;SDS011;9750;48.730;10.294;2023-03-05T02:37:22;36.03;;;20.00;;
19231;SDS011;9750;48.730;10.294;2023-03-05T02:39:49;29.27;;;17.17;;
19231;SDS011;9750;48.730;10.294;2023-03-05T02:42:18;37.20;;;19.60;;
19231;SDS011;9750;48.730;10.294;2023-03-05T02:44:45;29.33;;;17.70;;
19231;SDS011;9750;48.730;10.294;2023-03-05T02:47:12;39.57;;;20.87;;
19231;SDS011;9750;48.730;10.294;2023-03-05T02:49:39;37.60;;;19.83;;
19231;SDS011;9750;48.730;10.294;2023-03-05T02:52:06;38.23;;;20.30;;
19231;SDS011;9750;48.730;10.294;2023-03-05T02:54:34;38.07;;;19.60;;
19231;SDS011;9750;48.730;10.294;2023-03-05T02:57:01;38.90;;;19.40;;
19231;SDS011;9750;48.730;10.294;2023-03-05T02:59:30;40.97;;;21.17;;
19231;SDS011;9750;48.730;10.294;2023-03-05T03:01:57;31.00;;;18.53;;
19231;SDS011;9750;48.730;10.294;2023-03-05T03:04:24;34.63;;;20.23;;
19231;SDS011;9750;48.730;10.294;2023-03-05T03:06:51;38.00;;;20.40;;
19231;SDS011;9750;48.730;10.294;2023-03-05T03:09:19;31.67;;;18.20;;
19231;SDS011;9750;48.730;10.294;2023-03-05T03:11:46;36.30;;;20.23;;
19231;SDS011;9750;48.730;10.294;2023-03-05T03:14:13;42.37;;;20.47;;
19231;SDS011;9750;48.730;10.294;2023-03-05T03:16:42;29.23;;;17.67;;
19231;SDS011;9750;48.730;10.294;2023-03-05T03:19:09;41.13;;;21.50;;
19231;SDS011;9750;48.730;10.294;2023-03-05T03:21:37;32.23;;;19.73;;
19231;SDS011;9750;48.730;10.294;2023-03-05T03:24:04;37.60;;;20.33;;
19231;SDS011;9750;48.730;10.294;2023-03-05T03:26:32;41.07;;;21.23;;
19231;SDS011;9750;48.730;10.294;2023-03-05T03:28:59;37.83;;;19.97;;
19231;SDS011;9750;48.730;10.294;2023-03-05T03:31:26;35.67;;;20.73;;
19231;SDS011;9750;48.730;10.294;2023-03-05T03:33:55;43.73;;;21.70;;
19231;SDS011;9750;48.730;10.294;2023-03-05T03:36:22;33.97;;;19.33;;
19231;SDS011;9750;48.730;10.294;2023-03-05T03:38:49;37.07;;;21.30;;
19231;SDS011;9750;48.730;10.294;2023-03-05T03:41:16;39.03;;;21.67;;
19231;SDS011;9750;48.730;10.294;2023-03-05T03:43:44;40.17;;;21.93;;
19231;SDS011;9750;48.730;10.294;2023-03-05T03:46:11;38.80;;;20.97;;
19231;SDS011;9750;48.730;10.294;2023-03-05T03:48:39;40.07;;;22.37;;
19231;SDS011;9750;48.730;10.294;2023-03-05T03:51:07;41.40;;;23.13;;
19231;SDS011;9750;48.730;10.294;2023-03-05T03:53:34;44.87;;;22.67;;
19231;SDS011;9750;48.730;10.294;2023-03-05T03:56:02;44.70;;;23.67;;
19231;SDS011;9750;48.730;10.294;2023-03-05T03:58:29;47.20;;;24.47;;
19231;SDS011;9750;48.730;10.294;2023-03-05T04:00:57;40.70;;;22.70;;
19231;SDS011;9750;48.730;10.294;2023-03-05T04:03:24;40.80;;;21.53;;
19231;SDS011;9750;48.730;10.294;2023-03-05T04:05:51;35.83;;;23.00;;
19231;SDS011;9750;48.730;10.294;2023-03-05T04:11:42;44.17;;;25.17;;
19231;SDS011;9750;48.730;10.294;2023-03-05T04:14:09;38.17;;;22.03;;
19231;SDS011;9750;48.730;10.294;2023-03-05T04:16:36;43.87;;;25.30;;
19231;SDS011;9750;48.730;10.294;2023-03-05T04:19:03;49.93;;;25.30;;
19231;SDS011;9750;48.730;10.294;2023-03-05T04:21:30;38.80;;;23.63;;
19231;SDS011;9750;48.730;10.294;2023-03-05T04:23:58;43.20;;;24.97;;
19231;SDS011;9750;48.730;10.294;2023-03-05T04:26:25;44.77;;;25.70;;
19231;SDS011;9750;48.730;10.294;2023-03-05T04:28:54;42.07;;;23.63;;
19231;SDS011;9750;48.730;10.294;2023-03-05T04:31:21;52.03;;;25.80;;
19231;SDS011;9750;48.730;10.294;2023-03-05T04:33:48;42.50;;;23.97;;
19231;SDS011;9750;48.730;10.294;2023-03-05T04:36:15;37.70;;;22.50;;
19231;SDS011;9750;48.730;10.294;2023-03-05T04:38:43;47.23;;;26.00;;
19231;SDS011;9750;48.730;10.294;2023-03-05T04:41:10;46.93;;;25.73;;
19231;SDS011;9750;48.730;10.294;2023-03-05T04:43:37;46.97;;;26.63;;
19231;SDS011;9750;48.730;10.294;2023-03-05T04:46:06;37.53;;;23.23;;
19231;SDS011;9750;48.730;10.294;2023-03-05T04:48:33;46.27;;;25.83;;
19231;SDS011;9750;48.730;10.294;2023-03-05T04:51:00;46.83;;;25.03;;
19231;SDS011;9750;48.730;10.294;2023-03-05T04:53:27;36.50;;;23.20;;
19231;SDS011;9750;48.730;10.294;2023-03-05T04:55:54;50.00;;;26.17;;
19231;SDS011;9750;48.730;10.294;2023-03-05T04:58:22;41.90;;;24.30;;
19231;SDS011;9750;48.730;10.294;2023-03-05T05:00:49;44.40;;;26.77;;
19231;SDS011;9750;48.730;10.294;2023-03-05T05:03:18;47.87;;;26.30;;
19231;SDS011;9750;48.730;10.294;2023-03-05T05:05:52;37.93;;;22.30;;
19231;SDS011;9750;48.730;10.294;2023-03-05T05:08:20;46.27;;;24.87;;
19231;SDS011;9750;48.730;10.294;2023-03-05T05:10:54;49.57;;;28.47;;
19231;SDS011;9750;48.730;10.294;2023-03-05T05:13:22;38.67;;;24.37;;
19231;SDS011;9750;48.730;10.294;2023-03-05T05:15:49;56.23;;;31.87;;
19231;SDS011;9750;48.730;10.294;2023-03-05T05:21:40;35.50;;;22.63;;
19231;SDS011;9750;48.730;10.294;2023-03-05T05:24:07;45.10;;;24.33;;
19231;SDS011;9750;48.730;10.294;2023-03-05T05:26:34;36.77;;;22.17;;
19231;SDS011;9750;48.730;10.294;2023-03-05T05:29:01;41.80;;;24.67;;
19231;SDS011;9750;48.730;10.294;2023-03-05T05:31:29;34.00;;;21.30;;
19231;SDS011;9750;48.730;10.294;2023-03-05T05:33:56;43.23;;;24.53;;
19231;SDS011;9750;48.730;10.294;2023-03-05T05:36:24;48.87;;;25.83;;
19231;SDS011;9750;48.730;10.294;2023-03-05T05:38:52;46.23;;;26.03;;
19231;SDS011;9750;48.730;10.294;2023-03-05T05:41:20;37.30;;;22.77;;
19231;SDS011;9750;48.730;10.294;2023-03-05T05:43:47;43.23;;;25.37;;
19231;SDS011;9750;48.730;10.294;2023-03-05T05:46:15;49.47;;;28.07;;
19231;SDS011;9750;48.730;10.294;2023-03-05T05:48:43;45.00;;;25.20;;
19231;SDS011;9750;48.730;10.294;2023-03-05T05:51:12;48.10;;;25.70;;
19231;SDS011;9750;48.730;10.294;2023-03-05T05:53:42;33.23;;;22.20;;
19231;SDS011;9750;48.730;10.294;2023-03-05T05:56:19;45.40;;;26.60;;
19231;SDS011;9750;48.730;10.294;2023-03-05T05:58:47;35.73;;;23.00;;
19231;SDS011;9750;48.730;10.294;2023-03-05T06:01:15;47.00;;;25.93;;
19231;SDS011;9750;48.730;10.294;2023-03-05T06:03:44;42.83;;;25.17;;
19231;SDS011;9750;48.730;10.294;2023-03-05T06:06:13;43.33;;;25.77;;
19231;SDS011;9750;48.730;10.294;2023-03-05T06:08:42;50.63;;;25.87;;
19231;SDS011;9750;48.730;10.294;2023-03-05T06:11:10;35.90;;;21.77;;
19231;SDS011;9750;48.730;10.294;2023-03-05T06:13:39;44.60;;;24.80;;
19231;SDS011;9750;48.730;10.294;2023-03-05T06:16:07;39.77;;;24.50;;
19231;SDS011;9750;48.730;10.294;2023-03-05T06:18:37;44.73;;;25.03;;
19231;SDS011;9750;48.730;10.294;2023-03-05T06:21:05;51.00;;;26.27;;
19231;SDS011;9750;48.730;10.294;2023-03-05T06:23:34;44.60;;;26.07;;
19231;SDS011;9750;48.730;10.294;2023-03-05T06:26:01;39.07;;;24.10;;
19231;SDS011;9750;48.730;10.294;2023-03-05T06:28:30;45.33;;;26.20;;
19231;SDS011;9750;48.730;10.294;2023-03-05T06:31:00;40.53;;;23.70;;
19231;SDS011;9750;48.730;10.294;2023-03-05T06:33:27;44.50;;;26.40;;
19231;SDS011;9750;48.730;10.294;2023-03-05T06:35:55;49.63;;;26.30;;
19231;SDS011;9750;48.730;10.294;2023-03-05T06:38:23;46.93;;;25.63;;
19231;SDS011;9750;48.730;10.294;2023-03-05T06:40:51;38.33;;;24.13;;
19231;SDS011;9750;48.730;10.294;2023-03-05T06:43:18;50.37;;;27.10;;
19231;SDS011;9750;48.730;10.294;2023-03-05T06:45:45;46.23;;;25.57;;
19231;SDS011;9750;48.730;10.294;2023-03-05T06:48:14;42.47;;;25.17;;
19231;SDS011;9750;48.730;10.294;2023-03-05T06:50:41;50.10;;;27.50;;
19231;SDS011;9750;48.730;10.294;2023-03-05T06:53:08;48.97;;;27.67;;
19231;SDS011;9750;48.730;10.294;2023-03-05T06:55:35;46.60;;;26.17;;
19231;SDS011;9750;48.730;10.294;2023-03-05T06:58:05;48.93;;;25.53;;
19231;SDS011;9750;48.730;10.294;2023-03-05T07:00:33;49.83;;;27.03;;
19231;SDS011;9750;48.730;10.294;2023-03-05T07:03:00;55.20;;;28.10;;
19231;SDS011;9750;48.730;10.294;2023-03-05T07:05:29;42.03;;;25.77;;
19231;SDS011;9750;48.730;10.294;2023-03-05T07:07:56;49.20;;;26.17;;
19231;SDS011;9750;48.730;10.294;2023-03-05T07:10:24;42.60;;;24.57;;
19231;SDS011;9750;48.730;10.294;2023-03-05T07:12:51;51.33;;;27.07;;
19231;SDS011;9750;48.730;10.294;2023-03-05T07:15:18;47.47;;;25.60;;
19231;SDS011;9750;48.730;10.294;2023-03-05T07:17:45;53.37;;;27.47;;
19231;SDS011;9750;48.730;10.294;2023-03-05T07:20:12;41.03;;;24.23;;
19231;SDS011;9750;48.730;10.294;2023-03-05T07:22:41;50.23;;;26.83;;
19231;SDS011;9750;48.730;10.294;2023-03-05T07:25:09;43.10;;;25.20;;
19231;SDS011;9750;48.730;10.294;2023-03-05T07:27:36;47.43;;;27.27;;
19231;SDS011;9750;48.730;10.294;2023-03-05T07:30:04;53.47;;;28.40;;
19231;SDS011;9750;48.730;10.294;2023-03-05T07:32:33;42.67;;;24.60;;
19231;SDS011;9750;48.730;10.294;2023-03-05T07:35:01;49.07;;;28.03;;
19231;SDS011;9750;48.730;10.294;2023-03-05T07:37:28;49.47;;;27.30;;
19231;SDS011;9750;48.730;10.294;2023-03-05T07:39:57;51.30;;;25.70;;
19231;SDS011;9750;48.730;10.294;2023-03-05T07:42:24;42.27;;;24.60;;
19231;SDS011;9750;48.730;10.294;2023-03-05T07:44:52;52.57;;;27.37;;
19231;SDS011;9750;48.730;10.294;2023-03-05T07:50:41;43.43;;;25.30;;
19231;SDS011;9750;48.730;10.294;2023-03-05T07:53:08;38.47;;;23.13;;
19231;SDS011;9750;48.730;10.294;2023-03-05T07:55:42;47.33;;;25.63;;
19231;SDS011;9750;48.730;10.294;2023-03-05T07:58:09;41.20;;;23.60;;
19231;SDS011;9750;48.730;10.294;2023-03-05T08:00:37;44.63;;;24.83;;
19231;SDS011;9750;48.730;10.294;2023-03-05T08:03:04;38.47;;;22.33;;
19231;SDS011;9750;48.730;10.294;2023-03-05T08:05:32;43.47;;;23.97;;
19231;SDS011;9750;48.730;10.294;2023-03-05T08:07:59;40.97;;;25.77;;
19231;SDS011;9750;48.730;10.294;2023-03-05T08:10:26;52.17;;;26.67;;
19231;SDS011;9750;48.730;10.294;2023-03-05T08:15:44;102.80;;;56.70;;
19231;SDS011;9750;48.730;10.294;2023-03-05T08:18:11;44.33;;;27.50;;
19231;SDS011;9750;48.730;10.294;2023-03-05T08:20:39;46.37;;;27.33;;
19231;SDS011;9750;48.730;10.294;2023-03-05T08:23:06;38.03;;;23.13;;
19231;SDS011;9750;48.730;10.294;2023-03-05T08:25:34;52.27;;;28.70;;
19231;SDS011;9750;48.730;10.294;2023-03-05T08:28:02;42.80;;;24.37;;
19231;SDS011;9750;48.730;10.294;2023-03-05T08:30:30;43.47;;;22.73;;
19231;SDS011;9750;48.730;10.294;2023-03-05T08:32:58;53.63;;;26.33;;
19231;SDS011;9750;48.730;10.294;2023-03-05T08:35:26;42.53;;;23.83;;
19231;SDS011;9750;48.730;10.294;2023-03-05T08:37:53;45.13;;;25.93;;
19231;SDS011;9750;48.730;10.294;2023-03-05T08:40:20;37.07;;;22.67;;
19231;SDS011;9750;48.730;10.294;2023-03-05T08:42:47;44.57;;;24.37;;
19231;SDS011;9750;48.730;10.294;2023-03-05T08:45:16;35.47;;;22.47;;
19231;SDS011;9750;48.730;10.294;2023-03-05T08:47:43;42.37;;;25.20;;
19231;SDS011;9750;48.730;10.294;2023-03-05T08:50:12;37.17;;;21.83;;
19231;SDS011;9750;48.730;10.294;2023-03-05T08:52:39;40.73;;;23.93;;
19231;SDS011;9750;48.730;10.294;2023-03-05T08:55:07;36.00;;;22.73;;
19231;SDS011;9750;48.730;10.294;2023-03-05T08:57:34;43.83;;;23.97;;
19231;SDS011;9750;48.730;10.294;2023-03-05T09:00:02;54.43;;;30.03;;
19231;SDS011;9750;48.730;10.294;2023-03-05T09:02:29;55.47;;;29.27;;
19231;SDS011;9750;48.730;10.294;2023-03-05T09:04:57;49.43;;;31.23;;
19231;SDS011;9750;48.730;10.294;2023-03-05T09:07:25;46.30;;;25.73;;
19231;SDS011;9750;48.730;10.294;2023-03-05T09:09:52;32.77;;;20.33;;
19231;SDS011;9750;48.730;10.294;2023-03-05T09:12:20;36.33;;;22.37;;
19231;SDS011;9750;48.730;10.294;2023-03-05T09:14:47;34.97;;;20.17;;
19231;SDS011;9750;48.730;10.294;2023-03-05T09:17:14;34.33;;;21.03;;
19231;SDS011;9750;48.730;10.294;2023-03-05T09:19:41;32.57;;;18.23;;
19231;SDS011;9750;48.730;10.294;2023-03-05T09:22:09;31.03;;;18.83;;
19231;SDS011;9750;48.730;10.294;2023-03-05T09:24:37;36.23;;;20.23;;
19231;SDS011;9750;48.730;10.294;2023-03-05T09:27:05;29.53;;;18.87;;
19231;SDS011;9750;48.730;10.294;2023-03-05T09:29:32;35.17;;;20.30;;
19231;SDS011;9750;48.730;10.294;2023-03-05T09:31:59;26.47;;;17.40;;
19231;SDS011;9750;48.730;10.294;2023-03-05T09:34:26;35.23;;;20.13;;
19231;SDS011;9750;48.730;10.294;2023-03-05T09:36:54;29.33;;;18.07;;
19231;SDS011;9750;48.730;10.294;2023-03-05T09:39:21;31.77;;;18.60;;
19231;SDS011;9750;48.730;10.294;2023-03-05T09:42:01;26.63;;;16.97;;
19231;SDS011;9750;48.730;10.294;2023-03-05T09:44:42;30.43;;;18.07;;
19231;SDS011;9750;48.730;10.294;2023-03-05T09:47:24;27.70;;;17.90;;
19231;SDS011;9750;48.730;10.294;2023-03-05T09:50:09;21.73;;;14.80;;
19231;SDS011;9750;48.730;10.294;2023-03-05T09:52:45;26.70;;;16.13;;
19231;SDS011;9750;48.730;10.294;2023-03-05T09:55:19;21.53;;;14.37;;
19231;SDS011;9750;48.730;10.294;2023-03-05T10:01:14;26.37;;;14.97;;
19231;SDS011;9750;48.730;10.294;2023-03-05T10:03:50;18.97;;;13.43;;
19231;SDS011;9750;48.730;10.294;2023-03-05T10:06:22;23.20;;;14.87;;
19231;SDS011;9750;48.730;10.294;2023-03-05T10:08:53;28.13;;;15.97;;
19231;SDS011;9750;48.730;10.294;2023-03-05T10:14:14;17.37;;;12.83;;
19231;SDS011;9750;48.730;10.294;2023-03-05T10:16:51;21.17;;;12.17;;
19231;SDS011;9750;48.730;10.294;2023-03-05T10:19:36;19.97;;;11.73;;
19231;SDS011;9750;48.730;10.294;2023-03-05T10:22:32;16.20;;;11.20;;
19231;SDS011;9750;48.730;10.294;2023-03-05T10:25:14;24.27;;;14.97;;
19231;SDS011;9750;48.730;10.294;2023-03-05T10:27:46;18.20;;;12.20;;
19231;SDS011;9750;48.730;10.294;2023-03-05T10:33:11;14.80;;;10.20;;
19231;SDS011;9750;48.730;10.294;2023-03-05T10:35:52;17.67;;;11.33;;
19231;SDS011;9750;48.730;10.294;2023-03-05T10:38:52;18.73;;;9.93;;
19231;SDS011;9750;48.730;10.294;2023-03-05T10:41:40;15.70;;;10.83;;
19231;SDS011;9750;48.730;10.294;2023-03-05T10:44:18;21.40;;;11.80;;
19231;SDS011;9750;48.730;10.294;2023-03-05T10:46:51;24.23;;;14.63;;
19231;SDS011;9750;48.730;10.294;2023-03-05T10:49:24;19.40;;;14.37;;
19231;SDS011;9750;48.730;10.294;2023-03-05T10:51:55;19.73;;;12.47;;
19231;SDS011;9750;48.730;10.294;2023-03-05T10:54:27;25.03;;;21.90;;
19231;SDS011;9750;48.730;10.294;2023-03-05T10:57:02;20.27;;;11.87;;
19231;SDS011;9750;48.730;10.294;2023-03-05T10:59:36;40.07;;;34.57;;
19231;SDS011;9750;48.730;10.294;2023-03-05T11:02:04;25.60;;;23.10;;
19231;SDS011;9750;48.730;10.294;2023-03-05T11:04:35;16.50;;;11.63;;
19231;SDS011;9750;48.730;10.294;2023-03-05T11:07:10;15.93;;;10.40;;
19231;SDS011;9750;48.730;10.294;2023-03-05T11:10:15;17.67;;;11.63;;
19231;SDS011;9750;48.730;10.294;2023-03-05T11:12:45;15.70;;;10.80;;
19231;SDS011;9750;48.730;10.294;2023-03-05T11:15:24;18.73;;;11.83;;
19231;SDS011;9750;48.730;10.294;2023-03-05T11:20:47;15.67;;;10.87;;
19231;SDS011;9750;48.730;10.294;2023-03-05T11:23:15;16.87;;;10.70;;
19231;SDS011;9750;48.730;10.294;2023-03-05T11:25:53;19.03;;;12.10;;
19231;SDS011;9750;48.730;10.294;2023-03-05T11:28:27;18.17;;;11.17;;
19231;SDS011;9750;48.730;10.294;2023-03-05T11:30:58;19.77;;;12.10;;
19231;SDS011;9750;48.730;10.294;2023-03-05T11:33:27;17.77;;;11.00;;
19231;SDS011;9750;48.730;10.294;2023-03-05T11:36:10;15.37;;;10.97;;
19231;SDS011;9750;48.730;10.294;2023-03-05T11:38:49;21.37;;;12.60;;
19231;SDS011;9750;48.730;10.294;2023-03-05T11:41:19;14.37;;;10.83;;
19231;SDS011;9750;48.730;10.294;2023-03-05T11:43:52;18.33;;;11.43;;
19231;SDS011;9750;48.730;10.294;2023-03-05T11:46:21;19.13;;;11.20;;
19231;SDS011;9750;48.730;10.294;2023-03-05T11:48:50;16.97;;;12.43;;
19231;SDS011;9750;48.730;10.294;2023-03-05T11:51:21;14.17;;;10.10;;
19231;SDS011;9750;48.730;10.294;2023-03-05T11:53:54;18.60;;;11.63;;
19231;SDS011;9750;48.730;10.294;2023-03-05T11:59:14;21.90;;;12.13;;
19231;SDS011;9750;48.730;10.294;2023-03-05T12:01:45;19.17;;;11.70;;
19231;SDS011;9750;48.730;10.294;2023-03-05T12:04:13;18.90;;;12.60;;
19231;SDS011;9750;48.730;10.294;2023-03-05T12:06:44;20.17;;;12.93;;
19231;SDS011;9750;48.730;10.294;2023-03-05T12:09:15;18.57;;;12.70;;
19231;SDS011;9750;48.730;10.294;2023-03-05T12:11:50;18.80;;;11.77;;
19231;SDS011;9750;48.730;10.294;2023-03-05T12:14:24;22.07;;;13.03;;
19231;SDS011;9750;48.730;10.294;2023-03-05T12:17:00;14.13;;;9.97;;
19231;SDS011;9750;48.730;10.294;2023-03-05T12:19:37;19.20;;;11.43;;
19231;SDS011;9750;48.730;10.294;2023-03-05T12:22:17;15.53;;;10.27;;
19231;SDS011;9750;48.730;10.294;2023-03-05T12:24:47;18.97;;;12.53;;
19231;SDS011;9750;48.730;10.294;2023-03-05T12:27:16;13.43;;;10.33;;
19231;SDS011;9750;48.730;10.294;2023-03-05T12:29:58;16.20;;;11.60;;
19231;SDS011;9750;48.730;10.294;2023-03-05T12:35:27;17.50;;;11.63;;
19231;SDS011;9750;48.730;10.294;2023-03-05T12:38:16;16.17;;;11.17;;
19231;SDS011;9750;48.730;10.294;2023-03-05T12:46:43;20.00;;;12.60;;
19231;SDS011;9750;48.730;10.294;2023-03-05T12:49:32;16.10;;;11.47;;
19231;SDS011;9750;48.730;10.294;2023-03-05T12:52:03;20.87;;;12.93;;
19231;SDS011;9750;48.730;10.294;2023-03-05T12:54:42;14.03;;;10.33;;
19231;SDS011;9750;48.730;10.294;2023-03-05T12:57:13;17.17;;;12.10;;
19231;SDS011;9750;48.730;10.294;2023-03-05T12:59:44;18.47;;;12.83;;
19231;SDS011;9750;48.730;10.294;2023-03-05T13:02:20;17.77;;;11.90;;
19231;SDS011;9750;48.730;10.294;2023-03-05T13:04:52;17.90;;;12.60;;
19231;SDS011;9750;48.730;10.294;2023-03-05T13:07:23;16.70;;;12.20;;
19231;SDS011;9750;48.730;10.294;2023-03-05T13:09:52;22.23;;;14.10;;
19231;SDS011;9750;48.730;10.294;2023-03-05T13:12:21;21.03;;;13.17;;
19231;SDS011;9750;48.730;10.294;2023-03-05T13:14:54;21.53;;;13.37;;
19231;SDS011;9750;48.730;10.294;2023-03-05T13:17:35;17.37;;;13.00;;
19231;SDS011;9750;48.730;10.294;2023-03-05T13:23:07;17.57;;;11.70;;
19231;SDS011;9750;48.730;10.294;2023-03-05T13:25:42;19.60;;;12.13;;
19231;SDS011;9750;48.730;10.294;2023-03-05T13:28:11;18.27;;;12.13;;
19231;SDS011;9750;48.730;10.294;2023-03-05T13:30:42;16.50;;;12.67;;
19231;SDS011;9750;48.730;10.294;2023-03-05T13:33:15;20.17;;;12.77;;
19231;SDS011;9750;48.730;10.294;2023-03-05T13:35:45;19.63;;;11.23;;
19231;SDS011;9750;48.730;10.294;2023-03-05T13:38:15;19.30;;;12.47;;
19231;SDS011;9750;48.730;10.294;2023-03-05T13:43:45;18.40;;;12.63;;
19231;SDS011;9750;48.730;10.294;2023-03-05T13:46:21;17.97;;;12.43;;
19231;SDS011;9750;48.730;10.294;2023-03-05T13:48:50;17.60;;;12.23;;
19231;SDS011;9750;48.730;10.294;2023-03-05T13:51:17;16.67;;;11.70;;
19231;SDS011;9750;48.730;10.294;2023-03-05T13:53:44;20.97;;;13.40;;
19231;SDS011;9750;48.730;10.294;2023-03-05T13:56:14;15.43;;;12.07;;
19231;SDS011;9750;48.730;10.294;2023-03-05T13:58:44;19.50;;;12.63;;
19231;SDS011;9750;48.730;10.294;2023-03-05T14:01:26;17.83;;;12.37;;
19231;SDS011;9750;48.730;10.294;2023-03-05T14:03:55;20.83;;;14.10;;
19231;SDS011;9750;48.730;10.294;2023-03-05T14:06:25;16.80;;;11.93;;
19231;SDS011;9750;48.730;10.294;2023-03-05T14:08:58;19.30;;;12.73;;
19231;SDS011;9750;48.730;10.294;2023-03-05T14:11:31;17.73;;;12.57;;
19231;SDS011;9750;48.730;10.294;2023-03-05T14:14:03;22.63;;;13.83;;
19231;SDS011;9750;48.730;10.294;2023-03-05T14:16:33;21.07;;;13.87;;
19231;SDS011;9750;48.730;10.294;2023-03-05T14:19:01;16.70;;;12.50;;
19231;SDS011;9750;48.730;10.294;2023-03-05T14:21:44;19.93;;;13.47;;
19231;SDS011;9750;48.730;10.294;2023-03-05T14:24:14;20.07;;;13.57;;
19231;SDS011;9750;48.730;10.294;2023-03-05T14:26:49;21.10;;;14.23;;
19231;SDS011;9750;48.730;10.294;2023-03-05T14:29:18;19.63;;;13.27;;
19231;SDS011;9750;48.730;10.294;2023-03-05T14:31:49;22.17;;;14.33;;
19231;SDS011;9750;48.730;10.294;2023-03-05T14:34:20;17.80;;;12.27;;
19231;SDS011;9750;48.730;10.294;2023-03-05T14:36:51;22.33;;;13.93;;
19231;SDS011;9750;48.730;10.294;2023-03-05T14:39:30;18.37;;;12.87;;
19231;SDS011;9750;48.730;10.294;2023-03-05T14:44:56;21.00;;;12.77;;
19231;SDS011;9750;48.730;10.294;2023-03-05T14:47:25;20.20;;;14.63;;
19231;SDS011;9750;48.730;10.294;2023-03-05T14:49:53;18.33;;;12.87;;
19231;SDS011;9750;48.730;10.294;2023-03-05T14:52:21;22.83;;;14.60;;
19231;SDS011;9750;48.730;10.294;2023-03-05T14:54:50;19.33;;;14.00;;
19231;SDS011;9750;48.730;10.294;2023-03-05T14:57:21;22.93;;;15.33;;
19231;SDS011;9750;48.730;10.294;2023-03-05T14:59:52;23.53;;;14.37;;
19231;SDS011;9750;48.730;10.294;2023-03-05T15:02:20;18.07;;;13.00;;
19231;SDS011;9750;48.730;10.294;2023-03-05T15:04:48;20.40;;;13.33;;
19231;SDS011;9750;48.730;10.294;2023-03-05T15:07:17;17.50;;;12.73;;
19231;SDS011;9750;48.730;10.294;2023-03-05T15:09:45;18.40;;;12.73;;
19231;SDS011;9750;48.730;10.294;2023-03-05T15:12:14;17.07;;;12.43;;
19231;SDS011;9750;48.730;10.294;2023-03-05T15:14:41;20.50;;;13.43;;
19231;SDS011;9750;48.730;10.294;2023-03-05T15:17:13;15.60;;;11.77;;
19231;SDS011;9750;48.730;10.294;2023-03-05T15:19:44;24.17;;;14.03;;
19231;SDS011;9750;48.730;10.294;2023-03-05T15:22:12;19.37;;;13.17;;
19231;SDS011;9750;48.730;10.294;2023-03-05T15:24:41;20.57;;;13.83;;
19231;SDS011;9750;48.730;10.294;2023-03-05T15:27:09;18.00;;;12.70;;
19231;SDS011;9750;48.730;10.294;2023-03-05T15:29:36;21.00;;;14.20;;